Time;durP1;ratioP1;P1;durP2;ratioP2;P2;SDS_P1;SDS_P2;PMS_P1;PMS_P2;Temp;Humidity;BMP_temperature;BMP_pressure;BME280_temperature;BME280_humidity;BME280_pressure;Samples;Min_cycle;Max_cycle;Signal;HPM_P1;HPM_P2
2022/01/05 00:01:53;;;;;;;;;;;11.20;91.90;;;;;;5017985;28;19909;-63
2022/01/05 00:04:19;;;;;;;;;;;11.30;91.90;;;;;;5035617;28;19913;-62
2022/01/05 00:06:45;;;;;;;;;;;11.40;91.90;;;;;;5035561;28;19909;-62
2022/01/05 00:09:10;;;;;;;;;;;11.40;92.20;;;;;;5035508;28;19960;-62
2022/01/05 00:11:36;;;;;;;;;;;11.40;91.80;;;;;;5017626;28;19909;-60
2022/01/05 00:14:02;;;;;;;;;;;11.30;91.70;;;;;;5035281;28;19963;-62
2022/01/05 00:16:27;;;;;;;;;;;11.30;91.80;;;;;;5045599;28;19909;-63
2022/01/05 00:18:54;;;;;;;;;;;11.30;91.80;;;;;;5035273;28;20008;-63
2022/01/05 00:21:19;;;;;;;;;;;11.20;91.90;;;;;;5035321;28;20011;-61
2022/01/05 00:23:45;;;;;;;;;;;11.30;92.00;;;;;;5035079;28;19993;-60
2022/01/05 00:26:10;;;;;;;;;;;11.20;92.00;;;;;;5035149;28;19916;-63
2022/01/05 00:28:36;;;;;;;;;;;11.30;92.00;;;;;;5035134;28;19913;-59
2022/01/05 00:31:02;;;;;;;;;;;11.30;91.90;;;;;;5034852;28;20281;-61
2022/01/05 00:33:28;;;;;;;;;;;11.40;91.90;;;;;;5035172;28;19916;-60
2022/01/05 00:35:54;;;;;;;;;;;11.40;91.80;;;;;;5034986;28;20003;-63
2022/01/05 00:38:19;;;;;;;;;;;11.40;91.90;;;;;;5034791;28;20372;-60
2022/01/05 00:40:45;;;;;;;;;;;11.40;91.90;;;;;;5035132;28;19962;-59
2022/01/05 00:43:10;;;;;;;;;;;11.40;91.90;;;;;;5034804;28;19909;-61
2022/01/05 00:45:36;;;;;;;;;;;11.40;92.00;;;;;;5036465;28;19964;-61
2022/01/05 00:48:02;;;;;;;;;;;11.40;91.90;;;;;;5037027;28;20353;-59
2022/01/05 00:50:27;;;;;;;;;;;11.50;91.90;;;;;;5036655;28;19921;-59
2022/01/05 00:52:59;;;;;;;;;;;11.40;91.80;;;;;;5035951;28;19909;-58
2022/01/05 00:55:26;;;;;;;;;;;11.50;91.90;;;;;;5034712;28;20055;-60
2022/01/05 00:57:52;;;;;;;;;;;11.60;91.80;;;;;;5034535;28;19983;-61
2022/01/05 01:00:17;;;;;;;;;;;11.60;91.60;;;;;;5016927;28;20004;-60
2022/01/05 01:02:43;;;;;;;;;;;11.60;91.50;;;;;;5034450;28;20007;-59
2022/01/05 01:05:08;;;;;;;;;;;11.60;91.50;;;;;;5034669;28;19913;-59
2022/01/05 01:07:34;;;;;;;;;;;11.60;91.60;;;;;;5034284;28;19911;-60
2022/01/05 01:09:59;;;;;;;;;;;11.50;91.60;;;;;;5034344;28;19917;-59
2022/01/05 01:12:25;;;;;;;;;;;11.60;91.50;;;;;;5034313;28;19915;-60
2022/01/05 01:14:50;;;;;;;;;;;11.50;91.70;;;;;;5034223;28;19910;-59
2022/01/05 01:17:16;;;;;;;;;;;11.50;91.70;;;;;;5034333;28;19951;-58
2022/01/05 01:19:42;;;;;;;;;;;11.60;91.70;;;;;;5034282;28;19916;-58
2022/01/05 01:22:07;;;;;;;;;;;11.60;91.60;;;;;;5034067;28;20429;-61
2022/01/05 01:24:33;;;;;;;;;;;11.70;91.50;;;;;;5016281;28;19917;-60
2022/01/05 01:26:58;;;;;;;;;;;11.70;91.50;;;;;;5033822;28;19947;-60
2022/01/05 01:29:24;;;;;;;;;;;11.60;91.60;;;;;;5034057;28;20328;-60
2022/01/05 01:31:50;;;;;;;;;;;11.60;91.50;;;;;;5016424;28;20380;-67
2022/01/05 01:34:16;;;;;;;;;;;11.60;91.60;;;;;;5033794;28;19996;-65
2022/01/05 01:36:41;;;;;;;;;;;11.70;91.60;;;;;;5034013;28;19971;-65
2022/01/05 01:39:07;;;;;;;;;;;11.60;91.60;;;;;;5033725;28;19975;-60
2022/01/05 01:41:32;;;;;;;;;;;11.50;91.60;;;;;;5033844;28;19955;-68
2022/01/05 01:43:58;;;;;;;;;;;11.50;91.70;;;;;;5033807;28;20010;-65
2022/01/05 01:46:24;;;;;;;;;;;11.50;91.60;;;;;;5033591;28;19917;-66
2022/01/05 01:48:49;;;;;;;;;;;11.50;91.60;;;;;;5033704;28;19928;-66
2022/01/05 01:51:16;;;;;;;;;;;11.50;91.60;;;;;;5033731;28;20396;-65
2022/01/05 01:53:42;;;;;;;;;;;11.50;91.70;;;;;;5033587;28;19913;-63
2022/01/05 01:56:08;;;;;;;;;;;11.40;91.60;;;;;;5033686;28;19978;-65
2022/01/05 01:58:34;;;;;;;;;;;11.40;91.80;;;;;;5033474;28;19909;-60
2022/01/05 02:01:00;;;;;;;;;;;11.50;91.80;;;;;;5033535;28;19964;-65
2022/01/05 02:03:25;;;;;;;;;;;11.50;91.90;;;;;;5033579;28;20027;-66
2022/01/05 02:05:51;;;;;;;;;;;11.50;91.90;;;;;;5033361;28;19909;-64
2022/01/05 02:08:16;;;;;;;;;;;11.60;91.80;;;;;;5033507;28;19916;-65
2022/01/05 02:10:43;;;;;;;;;;;11.50;91.70;;;;;;5033233;28;19967;-65
2022/01/05 02:13:09;;;;;;;;;;;11.50;91.60;;;;;;5033329;28;19913;-66
2022/01/05 02:15:35;;;;;;;;;;;11.60;91.70;;;;;;5033380;28;19963;-65
2022/01/05 02:20:29;;;;;;;;;;;11.60;91.70;;;;;;5033231;28;19909;-64
2022/01/05 02:22:55;;;;;;;;;;;11.60;91.80;;;;;;5033187;28;20023;-67
2022/01/05 02:25:21;;;;;;;;;;;11.60;91.80;;;;;;5033364;28;19916;-68
2022/01/05 02:27:47;;;;;;;;;;;11.60;91.70;;;;;;5033301;28;19909;-62
2022/01/05 02:30:17;;;;;;;;;;;11.70;91.70;;;;;;5033116;28;19918;-61
2022/01/05 02:32:42;;;;;;;;;;;11.70;91.60;;;;;;5033168;28;19909;-66
2022/01/05 02:35:08;;;;;;;;;;;11.60;91.60;;;;;;5033087;28;20380;-60
2022/01/05 02:37:39;;;;;;;;;;;11.60;91.50;;;;;;5032913;28;20384;-66
2022/01/05 02:40:05;;;;;;;;;;;11.60;91.60;;;;;;5035551;28;20487;-64
2022/01/05 02:42:31;;;;;;;;;;;11.50;91.70;;;;;;5037066;28;20018;-62
2022/01/05 02:44:56;;;;;;;;;;;11.50;91.80;;;;;;5037148;28;19909;-65
2022/01/05 02:47:22;;;;;;;;;;;11.50;92.00;;;;;;5036850;28;20284;-61
2022/01/05 02:49:49;;;;;;;;;;;11.40;92.00;;;;;;5036952;28;19917;-63
2022/01/05 02:52:15;;;;;;;;;;;11.50;92.20;;;;;;5037023;28;19909;-60
2022/01/05 02:54:41;;;;;;;;;;;11.60;92.10;;;;;;5036826;28;19916;-62
2022/01/05 02:57:07;;;;;;;;;;;11.60;92.10;;;;;;5036876;28;20007;-66
2022/01/05 02:59:32;;;;;;;;;;;11.60;92.10;;;;;;5036796;28;19956;-60
2022/01/05 03:01:58;;;;;;;;;;;11.40;92.20;;;;;;5036835;28;20312;-62
2022/01/05 03:04:26;;;;;;;;;;;11.40;92.40;;;;;;5036651;28;19909;-64
2022/01/05 03:06:52;;;;;;;;;;;11.50;92.40;;;;;;5036646;28;19909;-64
2022/01/05 03:09:17;;;;;;;;;;;11.50;92.40;;;;;;5036560;28;20055;-63
2022/01/05 03:11:43;;;;;;;;;;;11.40;92.30;;;;;;5036596;28;19916;-65
2022/01/05 03:14:08;;;;;;;;;;;11.50;92.30;;;;;;5036591;28;19913;-61
2022/01/05 03:16:34;;;;;;;;;;;11.60;92.40;;;;;;5036473;28;19956;-63
2022/01/05 03:18:59;;;;;;;;;;;11.60;92.20;;;;;;5036447;28;19986;-63
2022/01/05 03:21:25;;;;;;;;;;;11.60;92.20;;;;;;5036697;28;19909;-65
2022/01/05 03:23:51;;;;;;;;;;;11.60;92.20;;;;;;5036330;28;20321;-65
2022/01/05 03:26:16;;;;;;;;;;;11.70;92.10;;;;;;5036226;28;19975;-60
2022/01/05 03:28:42;;;;;;;;;;;11.70;92.10;;;;;;5036329;28;19975;-62
2022/01/05 03:31:07;;;;;;;;;;;11.70;91.90;;;;;;5036185;28;19910;-62
2022/01/05 03:33:33;;;;;;;;;;;11.70;92.00;;;;;;5036296;28;19960;-63
2022/01/05 03:35:58;;;;;;;;;;;11.80;92.10;;;;;;5036352;28;19924;-64
2022/01/05 03:38:24;;;;;;;;;;;11.80;92.00;;;;;;5038315;28;19928;-63
2022/01/05 03:40:50;;;;;;;;;;;11.80;92.00;;;;;;5036973;28;20365;-65
2022/01/05 03:43:16;;;;;;;;;;;11.80;92.00;;;;;;5036063;28;19916;-63
2022/01/05 03:45:42;;;;;;;;;;;11.80;92.00;;;;;;5035986;28;20314;-61
2022/01/05 03:48:09;;;;;;;;;;;11.80;91.90;;;;;;5035972;28;20048;-65
2022/01/05 03:50:35;;;;;;;;;;;11.80;92.00;;;;;;5035377;28;19970;-60
2022/01/05 03:53:00;;;;;;;;;;;11.70;92.00;;;;;;5018075;28;20374;-60
2022/01/05 03:55:26;;;;;;;;;;;11.80;92.10;;;;;;5035800;28;19916;-60
2022/01/05 03:57:52;;;;;;;;;;;11.70;92.10;;;;;;5035821;28;19909;-66
2022/01/05 04:00:18;;;;;;;;;;;11.80;92.00;;;;;;5035664;28;19941;-68
2022/01/05 04:02:44;;;;;;;;;;;11.90;91.90;;;;;;5035573;28;20270;-67
2022/01/05 04:05:09;;;;;;;;;;;11.90;91.90;;;;;;5035770;28;19996;-63
2022/01/05 04:07:35;;;;;;;;;;;11.90;91.90;;;;;;5035721;28;19909;-66
2022/01/05 04:10:00;;;;;;;;;;;11.90;91.90;;;;;;5035366;28;20048;-62
2022/01/05 04:12:26;;;;;;;;;;;11.90;91.90;;;;;;5035647;28;20280;-67
2022/01/05 04:14:52;;;;;;;;;;;11.90;91.90;;;;;;5035381;28;19910;-61
2022/01/05 04:17:17;;;;;;;;;;;11.90;91.80;;;;;;5035398;28;19909;-63
2022/01/05 04:19:43;;;;;;;;;;;11.80;91.80;;;;;;5035570;28;19909;-65
2022/01/05 04:22:08;;;;;;;;;;;11.80;91.80;;;;;;5035284;28;19919;-65
2022/01/05 04:24:34;;;;;;;;;;;11.90;91.60;;;;;;5035305;28;19996;-64
2022/01/05 04:27:00;;;;;;;;;;;11.80;91.60;;;;;;5035224;28;19917;-63
2022/01/05 04:29:25;;;;;;;;;;;11.80;91.80;;;;;;5035100;28;19917;-63
2022/01/05 04:31:51;;;;;;;;;;;12.00;91.60;;;;;;5035124;28;20000;-64
2022/01/05 04:34:18;;;;;;;;;;;11.80;91.60;;;;;;5034931;28;20288;-63
2022/01/05 04:36:44;;;;;;;;;;;11.80;92.10;;;;;;5035075;28;19917;-65
2022/01/05 04:39:09;;;;;;;;;;;11.80;91.80;;;;;;5034973;28;19925;-63
2022/01/05 04:41:35;;;;;;;;;;;11.80;91.70;;;;;;5035003;28;19956;-68
2022/01/05 04:44:00;;;;;;;;;;;11.80;91.80;;;;;;5034880;28;19913;-64
2022/01/05 04:46:26;;;;;;;;;;;11.80;91.70;;;;;;5034787;28;19932;-64
2022/01/05 04:48:52;;;;;;;;;;;11.80;91.80;;;;;;5034773;28;19967;-64
2022/01/05 04:51:17;;;;;;;;;;;11.80;91.80;;;;;;5034850;28;19919;-62
2022/01/05 04:53:43;;;;;;;;;;;11.70;91.90;;;;;;5016710;28;19909;-64
2022/01/05 04:56:08;;;;;;;;;;;11.80;92.00;;;;;;5034822;28;19916;-63
2022/01/05 04:58:34;;;;;;;;;;;11.80;91.90;;;;;;5034625;28;19916;-62
2022/01/05 05:00:59;;;;;;;;;;;11.80;91.90;;;;;;5034698;28;20040;-65
2022/01/05 05:03:25;;;;;;;;;;;11.80;92.00;;;;;;5033644;28;19909;-66
2022/01/05 05:05:51;;;;;;;;;;;12.00;91.50;;;;;;5034363;28;19913;-67
2022/01/05 05:08:16;;;;;;;;;;;12.00;91.20;;;;;;5034560;28;19909;-64
2022/01/05 05:10:42;;;;;;;;;;;12.00;90.80;;;;;;5034365;28;19991;-62
2022/01/05 05:13:12;;;;;;;;;;;12.20;90.20;;;;;;5034267;28;20022;-63
2022/01/05 05:15:37;;;;;;;;;;;12.30;90.00;;;;;;5034552;28;20074;-64
2022/01/05 05:18:03;;;;;;;;;;;12.40;89.70;;;;;;5034248;28;20360;-60
2022/01/05 05:20:29;;;;;;;;;;;12.40;90.20;;;;;;5034201;28;19913;-61
2022/01/05 05:22:54;;;;;;;;;;;12.40;89.70;;;;;;5034226;28;19995;-61
2022/01/05 05:25:20;;;;;;;;;;;12.40;88.30;;;;;;5034148;28;19921;-61
2022/01/05 05:27:45;;;;;;;;;;;12.60;87.40;;;;;;5033987;28;19913;-60
2022/01/05 05:30:11;;;;;;;;;;;12.60;87.40;;;;;;5033804;28;19979;-58
2022/01/05 05:32:37;;;;;;;;;;;12.70;86.80;;;;;;5034014;28;19979;-61
2022/01/05 05:35:02;;;;;;;;;;;12.70;85.90;;;;;;5033955;28;19960;-59
2022/01/05 05:37:28;;;;;;;;;;;12.80;86.00;;;;;;5033642;28;19924;-60
2022/01/05 05:39:54;;;;;;;;;;;12.80;85.60;;;;;;5033989;28;19917;-60
2022/01/05 05:42:19;;;;;;;;;;;12.80;85.80;;;;;;5033910;28;20391;-60
2022/01/05 05:44:45;;;;;;;;;;;12.60;87.20;;;;;;5033786;28;20015;-59
2022/01/05 05:47:10;;;;;;;;;;;12.60;87.10;;;;;;5033895;28;19913;-58
2022/01/05 05:49:36;;;;;;;;;;;12.60;88.60;;;;;;5033605;28;19917;-60
2022/01/05 05:52:02;;;;;;;;;;;12.70;87.10;;;;;;5034077;28;20401;-59
2022/01/05 05:54:27;;;;;;;;;;;12.70;86.60;;;;;;5033781;28;20006;-59
2022/01/05 05:56:53;;;;;;;;;;;12.70;86.10;;;;;;5033489;28;19915;-59
2022/01/05 05:59:18;;;;;;;;;;;12.70;87.10;;;;;;5033606;28;19909;-58
2022/01/05 06:01:44;;;;;;;;;;;12.70;86.10;;;;;;5033482;28;19963;-59
2022/01/05 06:04:09;;;;;;;;;;;12.70;86.60;;;;;;5033619;28;19920;-58
2022/01/05 06:06:35;;;;;;;;;;;12.70;85.80;;;;;;5015838;28;19984;-59
2022/01/05 06:09:00;;;;;;;;;;;12.80;85.60;;;;;;5033385;28;20294;-59
2022/01/05 06:11:26;;;;;;;;;;;12.80;84.20;;;;;;5033485;28;19913;-58
2022/01/05 06:13:52;;;;;;;;;;;12.80;84.70;;;;;;5032943;28;19931;-59
2022/01/05 06:16:18;;;;;;;;;;;12.80;84.10;;;;;;5033525;28;19916;-59
2022/01/05 06:18:44;;;;;;;;;;;12.80;83.90;;;;;;5033406;28;20309;-59
2022/01/05 06:21:09;;;;;;;;;;;12.90;83.70;;;;;;5034209;28;19913;-67
2022/01/05 06:23:35;;;;;;;;;;;12.80;84.10;;;;;;5034489;28;19939;-69
2022/01/05 06:26:00;;;;;;;;;;;12.80;84.10;;;;;;5033945;28;19909;-66
2022/01/05 06:28:26;;;;;;;;;;;12.80;84.40;;;;;;5033028;28;20277;-63
2022/01/05 06:30:52;;;;;;;;;;;12.90;83.80;;;;;;5033450;28;19959;-65
2022/01/05 06:33:17;;;;;;;;;;;12.90;83.80;;;;;;5033100;28;19909;-62
2022/01/05 06:35:43;;;;;;;;;;;12.90;83.60;;;;;;5033176;28;19909;-60
2022/01/05 06:38:08;;;;;;;;;;;12.90;83.30;;;;;;5033127;28;19921;-68
2022/01/05 06:40:35;;;;;;;;;;;12.90;83.40;;;;;;5032711;28;19909;-66
2022/01/05 06:43:01;;;;;;;;;;;12.90;83.40;;;;;;5032909;28;19910;-66
2022/01/05 06:45:27;;;;;;;;;;;12.90;82.80;;;;;;5015222;28;19909;-61
2022/01/05 06:47:52;;;;;;;;;;;13.00;82.90;;;;;;5033032;28;19995;-63
2022/01/05 06:50:18;;;;;;;;;;;13.10;82.20;;;;;;5032837;28;19987;-66
2022/01/05 06:52:44;;;;;;;;;;;13.00;82.60;;;;;;5032702;28;19912;-65
2022/01/05 06:55:09;;;;;;;;;;;13.10;82.40;;;;;;5032915;28;19913;-66
2022/01/05 06:57:37;;;;;;;;;;;13.20;82.10;;;;;;5032733;28;19913;-61
2022/01/05 07:00:04;;;;;;;;;;;13.20;82.10;;;;;;5032936;28;19917;-66
2022/01/05 07:02:29;;;;;;;;;;;13.10;82.40;;;;;;5032969;28;20404;-64
2022/01/05 07:04:55;;;;;;;;;;;13.20;82.00;;;;;;5032667;28;19963;-62
2022/01/05 07:07:20;;;;;;;;;;;13.20;82.80;;;;;;5032992;28;19916;-63
2022/01/05 07:09:46;;;;;;;;;;;13.40;84.10;;;;;;5032570;28;19924;-62
2022/01/05 07:12:11;;;;;;;;;;;13.70;83.00;;;;;;5032655;28;20337;-64
2022/01/05 07:14:37;;;;;;;;;;;13.80;81.40;;;;;;5014943;28;20349;-62
2022/01/05 07:17:03;;;;;;;;;;;14.00;81.80;;;;;;5032506;28;19913;-62
2022/01/05 07:19:28;;;;;;;;;;;13.90;79.30;;;;;;5032742;28;19909;-63
2022/01/05 07:21:54;;;;;;;;;;;14.00;80.90;;;;;;5032686;28;20335;-63
2022/01/05 07:24:19;;;;;;;;;;;14.10;79.10;;;;;;5052008;28;20357;-62
2022/01/05 07:26:46;;;;;;;;;;;14.20;77.50;;;;;;5054751;28;20007;-63
2022/01/05 07:29:15;;;;;;;;;;;14.00;77.80;;;;;;5055055;28;20225;-65
2022/01/05 07:31:41;;;;;;;;;;;13.90;77.80;;;;;;5055308;28;19908;-62
2022/01/05 07:34:07;;;;;;;;;;;13.80;78.80;;;;;;5055247;28;19913;-62
2022/01/05 07:36:33;;;;;;;;;;;13.70;78.80;;;;;;5052529;28;19913;-62
2022/01/05 07:38:59;;;;;;;;;;;13.60;79.90;;;;;;5055216;28;19921;-67
2022/01/05 07:41:25;;;;;;;;;;;13.50;79.60;;;;;;5055120;28;20008;-66
2022/01/05 07:43:51;;;;;;;;;;;13.50;79.50;;;;;;5054905;28;20046;-64
2022/01/05 07:46:17;;;;;;;;;;;13.50;80.10;;;;;;5055877;28;20498;-62
2022/01/05 07:48:43;;;;;;;;;;;13.50;80.10;;;;;;5055348;28;19912;-61
2022/01/05 07:51:08;;;;;;;;;;;13.50;79.40;;;;;;5054905;28;20312;-63
2022/01/05 07:53:34;;;;;;;;;;;13.60;79.20;;;;;;5052209;28;19908;-64
2022/01/05 07:55:59;;;;;;;;;;;13.60;78.60;;;;;;5054894;28;19932;-62
2022/01/05 07:58:26;;;;;;;;;;;13.70;79.30;;;;;;5055034;28;19909;-65
2022/01/05 08:00:51;;;;;;;;;;;13.60;79.00;;;;;;5054606;28;19913;-62
2022/01/05 08:03:17;;;;;;;;;;;13.60;79.20;;;;;;5054817;28;20000;-60
2022/01/05 08:05:43;;;;;;;;;;;13.70;78.30;;;;;;5054801;28;20379;-61
2022/01/05 08:08:08;;;;;;;;;;;13.60;78.70;;;;;;5071042;28;19908;-62
2022/01/05 08:10:34;;;;;;;;;;;13.60;78.60;;;;;;5074045;28;19922;-63
2022/01/05 08:12:59;;;;;;;;;;;13.60;78.50;;;;;;5056219;28;19919;-62
2022/01/05 08:15:25;;;;;;;;;;;13.60;78.70;;;;;;5069673;28;19962;-63
2022/01/05 08:17:50;;;;;;;;;;;13.60;78.60;;;;;;5054519;28;19923;-62
2022/01/05 08:20:16;;;;;;;;;;;13.60;77.70;;;;;;5054346;28;19913;-60
2022/01/05 08:22:42;;;;;;;;;;;13.60;78.00;;;;;;5054492;28;20007;-63
2022/01/05 08:25:09;;;;;;;;;;;13.60;77.80;;;;;;5054164;28;19909;-62
2022/01/05 08:27:34;;;;;;;;;;;13.60;77.50;;;;;;5054273;28;19909;-58
2022/01/05 08:30:04;;;;;;;;;;;13.60;77.00;;;;;;5051445;28;19924;-59
2022/01/05 08:32:31;;;;;;;;;;;13.70;77.30;;;;;;5054330;28;19920;-59
2022/01/05 08:34:56;;;;;;;;;;;13.70;76.20;;;;;;5051491;28;20268;-58
2022/01/05 08:37:22;;;;;;;;;;;13.70;75.80;;;;;;5052801;28;20004;-57
2022/01/05 08:39:50;;;;;;;;;;;13.80;75.40;;;;;;5052778;28;19924;-58
2022/01/05 08:42:16;;;;;;;;;;;13.70;75.70;;;;;;5052602;28;20356;-59
2022/01/05 08:44:41;;;;;;;;;;;13.70;75.60;;;;;;5058896;28;19908;-65
2022/01/05 08:47:07;;;;;;;;;;;13.80;75.20;;;;;;5055095;28;19915;-62
2022/01/05 08:49:33;;;;;;;;;;;13.80;75.40;;;;;;5053213;28;19953;-59
2022/01/05 08:51:59;;;;;;;;;;;13.70;75.30;;;;;;5053979;28;19948;-63
2022/01/05 08:54:25;;;;;;;;;;;13.70;75.40;;;;;;5053826;28;19930;-63
2022/01/05 08:56:50;;;;;;;;;;;13.70;75.00;;;;;;5053435;28;19952;-59
2022/01/05 08:59:16;;;;;;;;;;;13.70;75.30;;;;;;5053801;28;19909;-60
2022/01/05 09:01:43;;;;;;;;;;;13.70;75.60;;;;;;5053794;28;19909;-59
2022/01/05 09:04:09;;;;;;;;;;;13.80;76.70;;;;;;5053042;28;19916;-63
2022/01/05 09:06:34;;;;;;;;;;;13.70;76.10;;;;;;5063067;28;19909;-67
2022/01/05 09:09:00;;;;;;;;;;;13.60;76.10;;;;;;5054676;28;19917;-62
2022/01/05 09:11:27;;;;;;;;;;;13.70;75.90;;;;;;5058748;28;19967;-64
2022/01/05 09:13:52;;;;;;;;;;;13.70;75.80;;;;;;5054117;28;19916;-65
2022/01/05 09:16:18;;;;;;;;;;;13.70;75.50;;;;;;5052597;28;19912;-64
2022/01/05 09:18:44;;;;;;;;;;;13.80;76.10;;;;;;5052862;28;19932;-59
2022/01/05 09:21:10;;;;;;;;;;;13.80;76.40;;;;;;5052346;28;20364;-61
2022/01/05 09:23:35;;;;;;;;;;;13.80;76.60;;;;;;5052245;28;19944;-63
2022/01/05 09:26:02;;;;;;;;;;;13.70;77.10;;;;;;5052192;28;19920;-62
2022/01/05 09:28:28;;;;;;;;;;;13.70;77.60;;;;;;5051261;28;19917;-62
2022/01/05 09:30:54;;;;;;;;;;;13.80;77.90;;;;;;5052499;28;20364;-63
2022/01/05 09:33:19;;;;;;;;;;;13.80;78.10;;;;;;5051506;28;20447;-63
2022/01/05 09:35:47;;;;;;;;;;;13.80;78.20;;;;;;5052045;28;19916;-64
2022/01/05 09:38:35;;;;;;;;;;;13.80;78.40;;;;;;5052415;28;20010;-68
2022/01/05 09:43:51;;;;;;;;;;;13.80;78.90;;;;;;5052571;28;19961;-64
2022/01/05 09:46:29;;;;;;;;;;;13.80;79.40;;;;;;5052078;28;19973;-65
2022/01/05 09:49:02;;;;;;;;;;;13.80;79.00;;;;;;5051489;28;19917;-64
2022/01/05 09:51:30;;;;;;;;;;;13.80;79.30;;;;;;5052651;28;20429;-65
2022/01/05 09:53:56;;;;;;;;;;;13.90;79.50;;;;;;5052342;28;19923;-59
2022/01/05 09:56:21;;;;;;;;;;;13.90;79.50;;;;;;5051851;28;20283;-64
2022/01/05 09:58:47;;;;;;;;;;;13.90;79.20;;;;;;5052410;28;20050;-64
2022/01/05 10:01:13;;;;;;;;;;;13.90;79.10;;;;;;5051886;28;19913;-60
2022/01/05 10:03:38;;;;;;;;;;;13.90;79.00;;;;;;5051930;28;20288;-64
2022/01/05 10:06:04;;;;;;;;;;;14.00;78.90;;;;;;5051994;28;19919;-59
2022/01/05 10:08:31;;;;;;;;;;;14.00;78.80;;;;;;5051962;28;19919;-59
2022/01/05 10:10:56;;;;;;;;;;;13.90;78.80;;;;;;5051857;28;19913;-63
2022/01/05 10:13:23;;;;;;;;;;;14.00;79.00;;;;;;5051729;28;19909;-62
2022/01/05 10:15:49;;;;;;;;;;;14.00;79.30;;;;;;5071455;28;19935;-60
2022/01/05 10:18:16;;;;;;;;;;;14.00;79.00;;;;;;5071045;28;20396;-60
2022/01/05 10:20:58;;;;;;;;;;;14.00;78.90;;;;;;5051462;28;19952;-61
2022/01/05 10:23:45;;;;;;;;;;;14.10;79.00;;;;;;5052245;28;20000;-59
2022/01/05 10:26:17;;;;;;;;;;;14.00;78.80;;;;;;5052225;28;19935;-59
2022/01/05 10:28:43;;;;;;;;;;;14.10;78.20;;;;;;5051383;28;19920;-60
2022/01/05 10:31:15;;;;;;;;;;;14.10;78.20;;;;;;5050155;28;19995;-60
2022/01/05 10:33:41;;;;;;;;;;;14.10;78.30;;;;;;5050646;28;19909;-59
2022/01/05 10:36:07;;;;;;;;;;;14.10;78.30;;;;;;5052317;28;19915;-58
2022/01/05 10:38:32;;;;;;;;;;;14.10;78.00;;;;;;5051843;28;19975;-61
2022/01/05 10:40:58;;;;;;;;;;;14.20;78.00;;;;;;5052184;28;19940;-61
2022/01/05 10:43:23;;;;;;;;;;;14.20;78.10;;;;;;5052356;28;19924;-59
2022/01/05 10:45:51;;;;;;;;;;;14.10;77.90;;;;;;5052113;28;19999;-60
2022/01/05 10:48:18;;;;;;;;;;;14.20;77.90;;;;;;5051356;28;19959;-59
2022/01/05 10:50:44;;;;;;;;;;;14.20;77.70;;;;;;5051533;28;19916;-60
2022/01/05 10:53:14;;;;;;;;;;;14.20;78.00;;;;;;5060875;28;20391;-61
2022/01/05 10:55:41;;;;;;;;;;;14.20;77.50;;;;;;5069365;28;20338;-60
2022/01/05 10:58:10;;;;;;;;;;;14.20;77.70;;;;;;5056242;28;19909;-61
2022/01/05 11:00:37;;;;;;;;;;;14.20;78.10;;;;;;5052958;28;19908;-59
2022/01/05 11:03:19;;;;;;;;;;;14.10;78.30;;;;;;5055857;28;19960;-61
2022/01/05 11:06:03;;;;;;;;;;;14.10;78.30;;;;;;5056458;28;20353;-59
2022/01/05 11:08:30;;;;;;;;;;;14.20;78.30;;;;;;5067799;28;20403;-64
2022/01/05 11:10:55;;;;;;;;;;;14.20;78.20;;;;;;5076440;28;19966;-65
2022/01/05 11:13:21;;;;;;;;;;;14.20;77.80;;;;;;5061708;28;21233;-64
2022/01/05 11:15:47;;;;;;;;;;;14.20;77.70;;;;;;5053015;28;20414;-66
2022/01/05 11:18:15;;;;;;;;;;;14.10;78.00;;;;;;5055522;28;19916;-65
2022/01/05 11:20:43;;;;;;;;;;;14.20;78.20;;;;;;5055543;28;19909;-64
2022/01/05 11:23:09;;;;;;;;;;;14.20;78.10;;;;;;5055542;28;19916;-60
2022/01/05 11:25:36;;;;;;;;;;;14.20;78.10;;;;;;5038213;28;19909;-63
2022/01/05 11:28:02;;;;;;;;;;;14.30;78.00;;;;;;5056365;28;19916;-63
2022/01/05 11:30:27;;;;;;;;;;;14.20;78.20;;;;;;5055707;28;20376;-61
2022/01/05 11:32:54;;;;;;;;;;;14.20;78.30;;;;;;5056046;28;19916;-61
2022/01/05 11:35:19;;;;;;;;;;;14.20;78.20;;;;;;5056274;28;19917;-61
2022/01/05 11:37:46;;;;;;;;;;;14.20;78.40;;;;;;5055960;28;20366;-62
2022/01/05 11:40:13;;;;;;;;;;;14.20;78.40;;;;;;5055855;28;19963;-59
2022/01/05 11:42:40;;;;;;;;;;;14.20;78.10;;;;;;5055807;28;19913;-58
2022/01/05 11:45:07;;;;;;;;;;;14.20;78.20;;;;;;5055816;28;19963;-59
2022/01/05 11:47:35;;;;;;;;;;;14.20;78.00;;;;;;5055827;28;20361;-58
2022/01/05 11:50:13;;;;;;;;;;;14.30;77.90;;;;;;5055832;28;20387;-57
2022/01/05 11:52:54;;;;;;;;;;;14.20;78.30;;;;;;5055628;28;19909;-59
2022/01/05 11:55:19;;;;;;;;;;;14.20;78.30;;;;;;5055661;28;19936;-58
2022/01/05 11:58:14;;;;;;;;;;;14.20;78.50;;;;;;5055439;28;19913;-65
2022/01/05 12:00:40;;;;;;;;;;;14.20;78.20;;;;;;5041593;28;19921;-59
2022/01/05 12:03:06;;;;;;;;;;;14.20;77.90;;;;;;5054732;28;19980;-59
2022/01/05 12:05:51;;;;;;;;;;;14.20;78.20;;;;;;5053046;28;19912;-59
2022/01/05 12:08:35;;;;;;;;;;;14.20;78.20;;;;;;5043816;28;19908;-60
2022/01/05 12:11:01;;;;;;;;;;;14.30;77.70;;;;;;5051966;28;19924;-57
2022/01/05 12:13:36;;;;;;;;;;;14.20;77.90;;;;;;5055078;28;19909;-60
2022/01/05 12:16:02;;;;;;;;;;;14.20;77.70;;;;;;5054994;28;19909;-59
2022/01/05 12:18:29;;;;;;;;;;;14.30;77.90;;;;;;5054891;28;19909;-60
2022/01/05 12:20:57;;;;;;;;;;;14.20;77.80;;;;;;5054935;28;19962;-62
2022/01/05 12:23:30;;;;;;;;;;;14.20;78.20;;;;;;5054766;28;20280;-64
2022/01/05 12:26:05;;;;;;;;;;;14.20;78.70;;;;;;5054862;28;19909;-60
2022/01/05 12:28:31;;;;;;;;;;;14.20;78.20;;;;;;5054675;28;19909;-60
2022/01/05 12:30:56;;;;;;;;;;;14.20;78.20;;;;;;5054774;28;20279;-59
2022/01/05 12:33:22;;;;;;;;;;;14.20;77.90;;;;;;5054445;28;19959;-60
2022/01/05 12:35:54;;;;;;;;;;;14.20;77.80;;;;;;5054622;28;19909;-61
2022/01/05 12:38:34;;;;;;;;;;;14.20;77.60;;;;;;5054471;28;19932;-58
2022/01/05 12:41:19;;;;;;;;;;;14.30;78.50;;;;;;5054760;28;19909;-61
2022/01/05 12:43:45;;;;;;;;;;;14.30;77.50;;;;;;5053911;28;20372;-61
2022/01/05 12:46:13;;;;;;;;;;;14.20;77.90;;;;;;5054722;28;19909;-61
2022/01/05 12:48:43;;;;;;;;;;;14.20;77.90;;;;;;5054243;28;19916;-59
2022/01/05 12:51:11;;;;;;;;;;;14.20;77.50;;;;;;5054132;28;19913;-60
2022/01/05 12:53:37;;;;;;;;;;;14.30;77.20;;;;;;5036395;28;20352;-60
2022/01/05 12:56:03;;;;;;;;;;;14.20;77.30;;;;;;5053935;28;20007;-59
2022/01/05 12:58:34;;;;;;;;;;;14.20;77.50;;;;;;5054118;28;20388;-58
2022/01/05 13:01:00;;;;;;;;;;;14.20;77.00;;;;;;5053924;28;19913;-59
2022/01/05 13:03:29;;;;;;;;;;;14.30;76.60;;;;;;5054300;28;19916;-59
2022/01/05 13:06:11;;;;;;;;;;;14.20;76.30;;;;;;5054232;28;19909;-59
2022/01/05 13:08:36;;;;;;;;;;;14.30;76.50;;;;;;5035988;28;20422;-59
2022/01/05 13:11:03;;;;;;;;;;;14.30;76.00;;;;;;5053858;28;19995;-60
2022/01/05 13:13:29;;;;;;;;;;;14.30;75.90;;;;;;5053783;28;19916;-65
2022/01/05 13:16:05;;;;;;;;;;;14.30;75.70;;;;;;5054052;28;19909;-62
2022/01/05 13:18:31;;;;;;;;;;;14.30;75.90;;;;;;5053741;28;19913;-63
2022/01/05 13:20:56;;;;;;;;;;;14.30;75.90;;;;;;5053825;28;19909;-59
2022/01/05 13:23:22;;;;;;;;;;;14.30;75.70;;;;;;5052829;28;19913;-59
2022/01/05 13:25:47;;;;;;;;;;;14.30;75.90;;;;;;5053750;28;19908;-58
2022/01/05 13:28:14;;;;;;;;;;;14.30;75.90;;;;;;5053603;28;19909;-57
2022/01/05 13:30:39;;;;;;;;;;;14.40;75.80;;;;;;5053492;28;19931;-61
2022/01/05 13:33:11;;;;;;;;;;;14.30;76.30;;;;;;5053589;28;19908;-60
2022/01/05 13:35:38;;;;;;;;;;;14.30;76.50;;;;;;5063955;28;19944;-59
2022/01/05 13:38:14;;;;;;;;;;;14.30;76.40;;;;;;5052342;28;20281;-61
2022/01/05 13:40:42;;;;;;;;;;;14.30;76.30;;;;;;5053254;28;20360;-62
2022/01/05 13:43:08;;;;;;;;;;;14.20;76.30;;;;;;5053451;28;20282;-62
2022/01/05 13:45:45;;;;;;;;;;;14.20;76.80;;;;;;5052727;28;19909;-61
2022/01/05 13:48:20;;;;;;;;;;;14.30;76.60;;;;;;5053460;28;19958;-60
2022/01/05 13:50:47;;;;;;;;;;;14.30;76.30;;;;;;5063272;28;20077;-61
2022/01/05 13:53:19;;;;;;;;;;;14.30;76.10;;;;;;5056800;28;19913;-60
2022/01/05 13:55:46;;;;;;;;;;;14.30;76.50;;;;;;5060172;28;19951;-62
2022/01/05 13:58:11;;;;;;;;;;;14.30;76.30;;;;;;5053277;28;19916;-61
2022/01/05 14:00:38;;;;;;;;;;;14.30;76.30;;;;;;5058881;28;19912;-59
2022/01/05 14:03:04;;;;;;;;;;;14.30;76.10;;;;;;5051409;28;19924;-59
2022/01/05 14:05:30;;;;;;;;;;;14.30;75.90;;;;;;5067862;28;19915;-65
2022/01/05 14:08:09;;;;;;;;;;;14.30;75.70;;;;;;5055993;28;19913;-63
2022/01/05 14:10:36;;;;;;;;;;;14.30;75.70;;;;;;5061730;28;19939;-66
2022/01/05 14:13:06;;;;;;;;;;;14.30;76.50;;;;;;5072536;28;20283;-59
2022/01/05 14:15:31;;;;;;;;;;;14.30;76.00;;;;;;5058276;28;19921;-60
2022/01/05 14:18:08;;;;;;;;;;;14.30;76.10;;;;;;5051851;28;20285;-66
2022/01/05 14:20:35;;;;;;;;;;;14.40;76.00;;;;;;5044907;28;19952;-58